createdAt,value
2023-02-22T00:01:35.648Z,6.49
2023-02-22T00:04:04.711Z,6.39
2023-02-22T00:06:31.493Z,6.48
2023-02-22T00:08:59.128Z,6.51
2023-02-22T00:11:26.973Z,6.53
2023-02-22T00:13:57.435Z,6.51
2023-02-22T00:16:26.431Z,6.54
2023-02-22T00:18:54.093Z,6.57
2023-02-22T00:21:21.506Z,6.40
2023-02-22T00:23:49.291Z,6.38
2023-02-22T00:26:21.425Z,6.53
2023-02-22T00:28:53.039Z,6.57
2023-02-22T00:31:20.958Z,6.62
2023-02-22T00:33:47.960Z,6.68
2023-02-22T00:36:14.800Z,6.67
2023-02-22T00:38:42.159Z,6.74
2023-02-22T00:41:09.984Z,6.77
2023-02-22T00:43:36.827Z,6.82
2023-02-22T00:46:03.573Z,6.82
2023-02-22T00:48:30.355Z,6.86
2023-02-22T00:50:57.051Z,6.86
2023-02-22T00:53:25.221Z,6.93
2023-02-22T00:55:53.131Z,6.94
2023-02-22T00:58:20.109Z,6.82
2023-02-22T01:00:47.056Z,6.85
2023-02-22T01:03:15.728Z,6.81
2023-02-22T01:05:43.049Z,6.90
2023-02-22T01:08:12.712Z,6.86
2023-02-22T01:10:40.111Z,6.89
2023-02-22T01:13:09.489Z,7.04
2023-02-22T01:15:38.017Z,6.99
2023-02-22T01:18:05.750Z,6.94
2023-02-22T01:20:32.763Z,6.86
2023-02-22T01:23:01.505Z,6.79
2023-02-22T01:25:30.523Z,6.78
2023-02-22T01:27:58.466Z,6.68
2023-02-22T01:30:28.161Z,6.54
2023-02-22T01:32:55.304Z,6.62
2023-02-22T01:35:26.078Z,6.77
2023-02-22T01:37:52.762Z,6.71
2023-02-22T01:40:30.906Z,6.73
2023-02-22T01:43:01.052Z,6.71
2023-02-22T01:45:30.894Z,6.83
2023-02-22T01:48:17.092Z,6.99
2023-02-22T01:50:55.805Z,6.92
2023-02-22T01:53:27.112Z,6.93
2023-02-22T01:55:55.345Z,6.93
2023-02-22T01:58:23.351Z,7.04
2023-02-22T02:00:50.187Z,6.99
2023-02-22T02:03:28.264Z,7.01
2023-02-22T02:05:58.706Z,6.99
2023-02-22T02:08:36.079Z,6.97
2023-02-22T02:11:14.028Z,7.04
2023-02-22T02:13:41.603Z,7.05
2023-02-22T02:16:08.362Z,7.11
2023-02-22T02:18:35.562Z,7.17
2023-02-22T02:21:05.245Z,7.15
2023-02-22T02:24:11.956Z,7.24
2023-02-22T02:27:05.610Z,7.27
2023-02-22T02:30:00.403Z,7.28
2023-02-22T02:32:30.218Z,7.24
2023-02-22T02:35:22.218Z,7.30
2023-02-22T02:38:05.431Z,7.34
2023-02-22T02:40:44.570Z,7.31
2023-02-22T02:43:17.682Z,7.30
2023-02-22T02:45:51.886Z,7.22
2023-02-22T02:48:25.547Z,7.23
2023-02-22T02:50:56.447Z,7.20
2023-02-22T02:53:29.900Z,7.20
2023-02-22T02:55:59.639Z,7.21
2023-02-22T02:58:26.920Z,7.24
2023-02-22T03:00:59.002Z,7.26
2023-02-22T03:03:47.617Z,7.17
2023-02-22T03:07:08.842Z,7.27
2023-02-22T03:09:38.044Z,7.35
2023-02-22T03:12:11.442Z,7.34
2023-02-22T03:14:42.497Z,7.35
2023-02-22T03:18:03.008Z,7.40
2023-02-22T03:20:59.937Z,7.36
2023-02-22T03:23:35.288Z,7.39
2023-02-22T03:26:07.735Z,7.45
2023-02-22T03:28:36.940Z,7.40
2023-02-22T03:31:22.243Z,7.42
2023-02-22T03:34:11.352Z,7.50
2023-02-22T03:36:48.204Z,7.50
2023-02-22T03:39:18.567Z,7.47
2023-02-22T03:41:51.520Z,7.42
2023-02-22T03:44:22.784Z,7.42
2023-02-22T03:46:52.117Z,7.40
2023-02-22T03:49:35.006Z,7.40
2023-02-22T03:52:04.263Z,7.43
2023-02-22T03:54:32.268Z,7.38
2023-02-22T03:57:06.645Z,7.45
2023-02-22T03:59:33.781Z,7.41
2023-02-22T04:02:00.513Z,7.31
2023-02-22T04:04:27.307Z,7.35
2023-02-22T04:06:54.793Z,7.41
2023-02-22T04:09:21.487Z,7.40
2023-02-22T04:11:48.501Z,7.41
2023-02-22T04:14:15.220Z,7.42
2023-02-22T04:16:41.908Z,7.39
2023-02-22T04:19:08.610Z,7.40
2023-02-22T04:21:35.433Z,7.41
2023-02-22T04:24:02.096Z,7.39
2023-02-22T04:26:29.001Z,7.42
2023-02-22T04:28:55.811Z,7.42
2023-02-22T04:31:22.520Z,7.44
2023-02-22T04:33:49.152Z,7.44
2023-02-22T04:36:16.230Z,7.38
2023-02-22T04:38:43.676Z,7.35
2023-02-22T04:41:11.367Z,7.36
2023-02-22T04:43:38.221Z,7.32
2023-02-22T04:46:05.113Z,7.27
2023-02-22T04:48:31.896Z,7.19
2023-02-22T04:50:58.571Z,7.22
2023-02-22T04:53:25.365Z,7.20
2023-02-22T04:55:52.533Z,7.19
2023-02-22T04:58:19.345Z,7.23
2023-02-22T05:00:46.026Z,7.37
2023-02-22T05:03:12.712Z,7.46
2023-02-22T05:05:39.426Z,7.40
2023-02-22T05:08:06.149Z,7.39
2023-02-22T05:10:32.905Z,7.40
2023-02-22T05:12:59.682Z,7.35
2023-02-22T05:15:26.578Z,7.34
2023-02-22T05:17:53.569Z,7.42
2023-02-22T05:20:28.324Z,7.44
2023-02-22T05:22:56.452Z,7.47
2023-02-22T05:25:23.451Z,7.51
2023-02-22T05:27:55.039Z,7.52
2023-02-22T05:30:24.582Z,7.55
2023-02-22T05:32:51.965Z,7.54
2023-02-22T05:35:19.526Z,7.50
2023-02-22T05:37:46.796Z,7.47
2023-02-22T05:40:14.700Z,7.45
2023-02-22T05:42:41.828Z,7.40
2023-02-22T05:45:09.287Z,7.45
2023-02-22T05:47:35.949Z,7.41
2023-02-22T05:50:02.623Z,7.39
2023-02-22T05:52:29.300Z,7.28
2023-02-22T05:54:56.031Z,7.30
2023-02-22T05:57:22.673Z,7.20
2023-02-22T05:59:49.485Z,7.25
2023-02-22T06:02:16.255Z,7.33
2023-02-22T06:04:47.228Z,7.32
2023-02-22T06:07:14.803Z,7.39
2023-02-22T06:09:41.735Z,7.39
2023-02-22T06:12:08.971Z,7.30
2023-02-22T06:14:36.273Z,7.35
2023-02-22T06:17:03.230Z,7.30
2023-02-22T06:19:29.902Z,7.44
2023-02-22T06:21:59.938Z,7.40
2023-02-22T06:24:26.620Z,7.50
2023-02-22T06:26:57.993Z,7.47
2023-02-22T06:29:26.046Z,7.42
2023-02-22T06:31:52.913Z,7.47
2023-02-22T06:34:20.237Z,7.49
2023-02-22T06:36:48.296Z,7.54
2023-02-22T06:39:16.270Z,7.39
2023-02-22T06:41:43.928Z,7.50
2023-02-22T06:44:11.047Z,7.50
2023-02-22T06:46:38.643Z,7.54
2023-02-22T06:49:05.911Z,7.61
2023-02-22T06:51:37.618Z,7.81
2023-02-22T06:54:04.587Z,7.86
2023-02-22T06:56:31.235Z,7.83
2023-02-22T06:58:57.944Z,7.91
2023-02-22T07:01:24.573Z,7.87
2023-02-22T07:03:51.306Z,7.83
2023-02-22T07:06:18.043Z,7.86
2023-02-22T07:08:44.746Z,7.91
2023-02-22T07:11:11.527Z,7.83
2023-02-22T07:13:38.292Z,7.86
2023-02-22T07:16:05.314Z,7.94
2023-02-22T07:18:32.014Z,7.99
2023-02-22T07:20:58.748Z,8.04
2023-02-22T07:23:25.503Z,8.02
2023-02-22T07:25:52.167Z,8.02
2023-02-22T07:28:19.055Z,8.03
2023-02-22T07:30:45.891Z,8.14
2023-02-22T07:33:13.405Z,8.00
2023-02-22T07:35:46.523Z,8.13
2023-02-22T07:38:15.328Z,8.15
2023-02-22T07:40:42.828Z,8.14
2023-02-22T07:43:17.326Z,8.25
2023-02-22T07:45:44.146Z,8.16
2023-02-22T07:48:12.900Z,8.18
2023-02-22T07:50:40.597Z,8.23
2023-02-22T07:53:12.291Z,8.32
2023-02-22T07:55:39.143Z,8.41
2023-02-22T07:58:07.959Z,8.33
2023-02-22T08:00:35.947Z,8.30
2023-02-22T08:03:05.389Z,8.26
2023-02-22T08:05:33.799Z,8.31
2023-02-22T08:08:00.995Z,8.36
2023-02-22T08:10:28.543Z,8.34
2023-02-22T08:12:56.067Z,8.37
2023-02-22T08:15:24.955Z,8.29
2023-02-22T08:17:53.377Z,8.38
2023-02-22T08:20:20.845Z,8.41
2023-02-22T08:22:48.434Z,8.40
2023-02-22T08:25:16.622Z,8.28
2023-02-22T08:27:44.136Z,8.36
2023-02-22T08:30:30.879Z,8.49
2023-02-22T08:32:58.990Z,8.57
2023-02-22T08:35:27.581Z,8.48
2023-02-22T08:37:58.568Z,8.47
2023-02-22T08:40:27.865Z,8.56
2023-02-22T08:42:55.043Z,8.46
2023-02-22T08:45:21.763Z,8.48
2023-02-22T08:47:49.266Z,8.54
2023-02-22T08:50:27.831Z,8.55
2023-02-22T08:52:58.645Z,8.57
2023-02-22T08:55:27.476Z,8.45
2023-02-22T08:57:54.137Z,8.58
2023-02-22T09:00:25.375Z,8.58
2023-02-22T09:02:53.004Z,8.62
2023-02-22T09:05:19.917Z,8.73
2023-02-22T09:07:46.700Z,8.70
2023-02-22T09:10:16.607Z,8.75
2023-02-22T09:12:43.304Z,8.67
2023-02-22T09:15:11.279Z,8.71
2023-02-22T09:17:38.025Z,8.70
2023-02-22T09:20:06.446Z,8.90
2023-02-22T09:22:33.424Z,8.84
2023-02-22T09:25:11.432Z,8.98
2023-02-22T09:27:43.668Z,9.05
2023-02-22T09:30:26.980Z,9.33
2023-02-22T09:32:57.695Z,9.30
2023-02-22T09:35:27.277Z,9.49
2023-02-22T09:38:00.127Z,9.51
2023-02-22T09:40:30.182Z,9.56
2023-02-22T09:43:07.277Z,9.68
2023-02-22T09:45:48.277Z,9.59
2023-02-22T09:48:22.199Z,9.71
2023-02-22T09:50:52.836Z,9.71
2023-02-22T09:53:31.488Z,9.80
2023-02-22T09:56:10.514Z,9.62
2023-02-22T09:58:46.535Z,9.80
2023-02-22T10:01:27.027Z,9.95
2023-02-22T10:04:30.459Z,9.99
2023-02-22T10:07:10.405Z,9.97
2023-02-22T10:09:44.831Z,9.97
2023-02-22T10:12:30.208Z,9.90
2023-02-22T10:14:59.890Z,9.94
2023-02-22T10:17:54.252Z,9.81
2023-02-22T10:20:54.026Z,9.96
2023-02-22T10:23:32.762Z,9.97
2023-02-22T10:26:12.348Z,9.90
2023-02-22T10:28:43.903Z,10.06
2023-02-22T10:31:36.328Z,10.20
2023-02-22T10:34:07.678Z,10.26
2023-02-22T10:36:39.130Z,10.42
2023-02-22T10:39:14.788Z,10.43
2023-02-22T10:41:49.359Z,10.61
2023-02-22T10:44:16.966Z,10.43
2023-02-22T10:46:46.019Z,10.32
2023-02-22T10:49:23.970Z,10.40
2023-02-22T10:52:02.276Z,10.41
2023-02-22T10:54:34.499Z,10.40
2023-02-22T10:57:01.282Z,10.21
2023-02-22T10:59:35.030Z,10.41
2023-02-22T11:02:17.915Z,10.40
2023-02-22T11:04:51.170Z,10.50
2023-02-22T11:07:30.480Z,10.31
2023-02-22T11:10:09.466Z,10.38
2023-02-22T11:12:48.519Z,10.39
2023-02-22T11:15:22.329Z,10.16
2023-02-22T11:17:51.867Z,10.28
2023-02-22T11:20:27.978Z,10.26
2023-02-22T11:23:01.152Z,10.42
2023-02-22T11:25:33.393Z,10.33
2023-02-22T11:28:31.006Z,10.45
2023-02-22T11:31:09.093Z,10.67
2023-02-22T11:33:37.944Z,10.57
2023-02-22T11:36:08.865Z,10.54
2023-02-22T11:38:38.118Z,10.66
2023-02-22T11:41:18.878Z,10.64
2023-02-22T11:43:48.322Z,10.76
2023-02-22T11:46:20.676Z,10.91
2023-02-22T11:49:06.632Z,10.65
2023-02-22T11:52:01.157Z,10.83
2023-02-22T11:54:58.341Z,10.84
2023-02-22T11:57:37.616Z,10.83
2023-02-22T12:00:16.294Z,10.91
2023-02-22T12:03:05.124Z,10.87
2023-02-22T12:06:00.560Z,10.93
2023-02-22T12:08:36.241Z,10.87
2023-02-22T12:11:18.194Z,10.96
2023-02-22T12:13:54.106Z,11.05
2023-02-22T12:16:23.765Z,10.94
2023-02-22T12:19:08.214Z,10.89
2023-02-22T12:21:40.455Z,10.89
2023-02-22T12:24:16.361Z,10.76
2023-02-22T12:26:55.240Z,11.01
2023-02-22T12:29:37.757Z,10.94
2023-02-22T12:32:06.399Z,11.00
2023-02-22T12:34:41.756Z,11.10
2023-02-22T12:37:22.597Z,11.07
2023-02-22T12:40:24.282Z,11.00
2023-02-22T12:43:05.377Z,10.96
2023-02-22T12:45:35.012Z,11.23
2023-02-22T12:48:19.900Z,11.16
2023-02-22T12:50:51.050Z,10.99
2023-02-22T12:53:37.038Z,10.89
2023-02-22T12:56:25.900Z,10.88
2023-02-22T12:59:03.323Z,10.79
2023-02-22T13:01:37.666Z,10.76
2023-02-22T13:04:19.515Z,10.89
2023-02-22T13:07:07.629Z,10.71
2023-02-22T13:09:59.467Z,10.91
2023-02-22T13:13:03.967Z,10.93
2023-02-22T13:15:44.732Z,10.91
2023-02-22T13:18:43.013Z,10.85
2023-02-22T13:21:31.786Z,10.99
2023-02-22T13:24:12.548Z,10.79
2023-02-22T13:27:01.701Z,10.92
2023-02-22T13:29:35.096Z,11.12
2023-02-22T13:32:22.821Z,11.06
2023-02-22T13:35:21.868Z,10.94
2023-02-22T13:37:51.513Z,10.77
2023-02-22T13:40:21.122Z,10.85
2023-02-22T13:43:17.243Z,10.79
2023-02-22T13:46:19.717Z,10.78
2023-02-22T13:49:35.053Z,10.93
2023-02-22T13:52:12.281Z,10.94
2023-02-22T13:54:54.747Z,10.90
2023-02-22T13:57:33.424Z,10.96
2023-02-22T14:00:15.420Z,11.03
2023-02-22T14:03:03.862Z,11.02
2023-02-22T14:05:37.613Z,11.12
2023-02-22T14:08:05.624Z,11.00
2023-02-22T14:10:44.500Z,11.06
2023-02-22T14:13:11.777Z,11.04
2023-02-22T14:16:00.435Z,10.97
2023-02-22T14:18:35.544Z,11.04
2023-02-22T14:21:19.328Z,10.96
2023-02-22T14:23:49.496Z,10.93
2023-02-22T14:26:18.481Z,10.85
2023-02-22T14:29:09.463Z,10.77
2023-02-22T14:31:45.059Z,10.80
2023-02-22T14:34:19.146Z,10.70
2023-02-22T14:36:54.606Z,10.76
2023-02-22T14:39:39.427Z,10.78
2023-02-22T14:42:12.906Z,10.78
2023-02-22T14:44:55.094Z,10.72
2023-02-22T14:47:29.436Z,10.76
2023-02-22T14:50:12.922Z,10.85
2023-02-22T14:52:40.763Z,10.77
2023-02-22T14:55:13.788Z,10.81
2023-02-22T14:57:45.698Z,10.72
2023-02-22T15:00:20.232Z,10.67
2023-02-22T15:02:57.338Z,10.80
2023-02-22T15:05:24.196Z,10.73
2023-02-22T15:08:09.924Z,10.65
2023-02-22T15:10:48.422Z,10.61
2023-02-22T15:13:19.297Z,10.67
2023-02-22T15:15:55.491Z,10.51
2023-02-22T15:18:37.677Z,10.59
2023-02-22T15:21:13.227Z,10.50
2023-02-22T15:24:00.367Z,10.59
2023-02-22T15:26:52.053Z,10.61
2023-02-22T15:29:35.081Z,10.55
2023-02-22T15:32:01.825Z,10.61
2023-02-22T15:34:31.635Z,10.53
2023-02-22T15:37:18.762Z,10.48
2023-02-22T15:39:45.526Z,10.45
2023-02-22T15:42:21.015Z,10.45
2023-02-22T15:44:54.732Z,10.32
2023-02-22T15:47:27.547Z,10.39
2023-02-22T15:50:15.970Z,10.24
2023-02-22T15:53:03.220Z,10.37
2023-02-22T15:55:42.201Z,10.28
2023-02-22T15:58:23.708Z,10.31
2023-02-22T16:01:14.109Z,10.18
2023-02-22T16:03:46.382Z,10.16
2023-02-22T16:06:28.600Z,10.28
2023-02-22T16:08:57.367Z,10.17
2023-02-22T16:11:43.114Z,10.14
2023-02-22T16:14:26.931Z,9.94
2023-02-22T16:17:25.778Z,10.11
2023-02-22T16:19:53.225Z,10.06
2023-02-22T16:22:33.714Z,10.07
2023-02-22T16:25:18.495Z,9.98
2023-02-22T16:27:51.006Z,9.91
2023-02-22T16:30:27.470Z,9.93
2023-02-22T16:32:56.577Z,10.09
2023-02-22T16:35:28.714Z,9.99
2023-02-22T16:37:58.824Z,9.92
2023-02-22T16:40:34.491Z,9.95
2023-02-22T16:43:03.889Z,9.90
2023-02-22T16:45:30.606Z,9.90
2023-02-22T16:48:04.844Z,9.84
2023-02-22T16:50:31.526Z,9.85
2023-02-22T16:53:00.610Z,9.75
2023-02-22T16:55:27.357Z,9.90
2023-02-22T16:58:01.055Z,9.80
2023-02-22T17:00:36.672Z,9.79
2023-02-22T17:03:04.675Z,9.81
2023-02-22T17:05:32.222Z,9.85
2023-02-22T17:07:58.880Z,9.80
2023-02-22T17:10:26.157Z,9.78
2023-02-22T17:12:53.496Z,9.77
2023-02-22T17:15:29.116Z,9.80
2023-02-22T17:17:57.350Z,9.68
2023-02-22T17:20:30.104Z,9.72
2023-02-22T17:23:01.978Z,9.68
2023-02-22T17:25:34.647Z,9.62
2023-02-22T17:28:01.333Z,9.65
2023-02-22T17:30:28.185Z,9.67
2023-02-22T17:33:03.433Z,9.65
2023-02-22T17:35:35.085Z,9.65
2023-02-22T17:38:06.222Z,9.60
2023-02-22T17:40:37.533Z,9.54
2023-02-22T17:43:08.033Z,9.63
2023-02-22T17:45:38.114Z,9.62
2023-02-22T17:48:05.551Z,9.66
2023-02-22T17:50:32.335Z,9.64
2023-02-22T17:53:03.243Z,9.63
2023-02-22T17:55:30.586Z,9.63
2023-02-22T17:57:58.363Z,9.56
2023-02-22T18:00:33.870Z,9.63
2023-02-22T18:03:04.519Z,9.63
2023-02-22T18:05:33.145Z,9.51
2023-02-22T18:08:00.252Z,9.50
2023-02-22T18:10:27.169Z,9.57
2023-02-22T18:12:53.949Z,9.64
2023-02-22T18:15:28.272Z,9.50
2023-02-22T18:17:56.016Z,9.51
2023-02-22T18:20:31.129Z,9.48
2023-02-22T18:22:59.207Z,9.49
2023-02-22T18:25:27.052Z,9.45
2023-02-22T18:27:55.007Z,9.58
2023-02-22T18:30:21.780Z,9.55
2023-02-22T18:32:48.490Z,9.53
2023-02-22T18:35:15.208Z,9.54
2023-02-22T18:37:41.864Z,9.49
2023-02-22T18:40:10.648Z,9.47
2023-02-22T18:42:38.908Z,9.47
2023-02-22T18:45:06.772Z,9.44
2023-02-22T18:47:39.917Z,9.49
2023-02-22T18:50:07.321Z,9.49
2023-02-22T18:52:44.768Z,9.51
2023-02-22T18:55:17.628Z,9.46
2023-02-22T18:57:45.665Z,9.53
2023-02-22T19:00:15.744Z,9.47
2023-02-22T19:02:46.008Z,9.44
2023-02-22T19:05:14.120Z,9.38
2023-02-22T19:07:40.790Z,9.50
2023-02-22T19:10:07.886Z,9.54
2023-02-22T19:12:34.874Z,9.46
2023-02-22T19:15:01.711Z,9.48
2023-02-22T19:17:31.086Z,9.49
2023-02-22T19:19:57.865Z,9.43
2023-02-22T19:22:26.275Z,9.43
2023-02-22T19:24:56.287Z,9.36
2023-02-22T19:27:23.521Z,9.42
2023-02-22T19:29:50.539Z,9.28
2023-02-22T19:32:17.580Z,9.27
2023-02-22T19:34:44.705Z,9.33
2023-02-22T19:37:13.174Z,9.28
2023-02-22T19:39:47.641Z,9.28
2023-02-22T19:42:14.416Z,9.35
2023-02-22T19:44:41.204Z,9.30
2023-02-22T19:47:10.132Z,9.34
2023-02-22T19:49:37.847Z,9.27
2023-02-22T19:52:06.587Z,9.33
2023-02-22T19:54:33.742Z,9.17
2023-02-22T19:57:01.161Z,9.28
2023-02-22T19:59:29.069Z,9.22
2023-02-22T20:01:56.660Z,9.16
2023-02-22T20:04:24.304Z,9.16
2023-02-22T20:06:57.555Z,9.10
2023-02-22T20:09:30.258Z,9.20
2023-02-22T20:11:57.262Z,9.19
2023-02-22T20:14:28.391Z,9.11
2023-02-22T20:16:55.940Z,9.11
2023-02-22T20:19:22.683Z,9.23
2023-02-22T20:21:52.287Z,9.10
2023-02-22T20:24:19.274Z,9.09
2023-02-22T20:26:47.185Z,9.06
2023-02-22T20:29:15.096Z,9.05
2023-02-22T20:31:43.068Z,9.13
2023-02-22T20:34:11.419Z,8.97
2023-02-22T20:36:41.436Z,9.04
2023-02-22T20:39:13.678Z,9.06
2023-02-22T20:41:42.163Z,9.02
2023-02-22T20:44:12.205Z,9.04
2023-02-22T20:46:39.841Z,8.99
2023-02-22T20:49:08.824Z,8.88
2023-02-22T20:51:36.823Z,8.95
2023-02-22T20:54:03.667Z,8.93
2023-02-22T20:56:32.326Z,8.91
2023-02-22T20:59:01.845Z,8.92
2023-02-22T21:01:28.989Z,8.93
2023-02-22T21:04:00.537Z,8.97
2023-02-22T21:06:28.686Z,8.95
2023-02-22T21:08:57.938Z,8.89
2023-02-22T21:11:32.127Z,8.94
2023-02-22T21:14:00.222Z,8.94
2023-02-22T21:16:30.126Z,8.88
2023-02-22T21:19:00.716Z,8.86
2023-02-22T21:21:29.026Z,8.94
2023-02-22T21:23:57.926Z,8.84
2023-02-22T21:26:29.627Z,8.89
2023-02-22T21:29:00.704Z,8.99
2023-02-22T21:31:28.313Z,8.93
2023-02-22T21:33:57.546Z,8.78
2023-02-22T21:36:27.529Z,8.91
2023-02-22T21:39:00.063Z,8.86
2023-02-22T21:41:31.196Z,8.90
2023-02-22T21:43:59.259Z,9.02
2023-02-22T21:46:27.738Z,8.97
2023-02-22T21:48:58.522Z,8.99
2023-02-22T21:51:31.506Z,9.02
2023-02-22T21:54:06.219Z,9.00
2023-02-22T21:56:36.567Z,8.91
2023-02-22T21:59:11.691Z,8.90
2023-02-22T22:01:47.536Z,8.91
2023-02-22T22:04:27.497Z,8.93
2023-02-22T22:06:56.822Z,8.95
2023-02-22T22:09:24.548Z,8.97
2023-02-22T22:12:03.409Z,8.90
2023-02-22T22:14:34.385Z,9.01
2023-02-22T22:17:01.486Z,9.05
2023-02-22T22:19:30.693Z,9.00
2023-02-22T22:21:58.315Z,8.93
2023-02-22T22:24:28.703Z,9.12
2023-02-22T22:26:56.195Z,9.07
2023-02-22T22:29:24.895Z,9.01
2023-02-22T22:31:52.340Z,9.02
2023-02-22T22:34:19.585Z,9.06
2023-02-22T22:36:46.837Z,9.06
2023-02-22T22:39:13.549Z,9.06
2023-02-22T22:41:47.021Z,9.05
2023-02-22T22:44:16.119Z,9.06
2023-02-22T22:46:49.016Z,9.09
2023-02-22T22:49:16.732Z,9.15
2023-02-22T22:51:47.338Z,9.20
2023-02-22T22:54:14.263Z,9.14
2023-02-22T22:56:41.035Z,9.11
2023-02-22T22:59:09.716Z,9.10
2023-02-22T23:01:44.418Z,9.09
2023-02-22T23:04:16.650Z,9.10
2023-02-22T23:06:50.897Z,9.00
2023-02-22T23:09:23.977Z,9.09
2023-02-22T23:11:53.561Z,9.02
2023-02-22T23:14:32.364Z,8.98
2023-02-22T23:17:03.627Z,8.91
2023-02-22T23:19:35.631Z,8.90
2023-02-22T23:22:05.352Z,8.84
2023-02-22T23:24:36.220Z,8.83
2023-02-22T23:27:07.211Z,8.77
2023-02-22T23:29:37.765Z,8.78
2023-02-22T23:32:08.711Z,8.85
2023-02-22T23:34:36.753Z,8.81
2023-02-22T23:37:03.582Z,8.75
2023-02-22T23:39:30.284Z,8.73
2023-02-22T23:42:01.292Z,8.67
2023-02-22T23:44:28.818Z,8.73
2023-02-22T23:46:56.006Z,8.68
2023-02-22T23:49:35.532Z,8.67
2023-02-22T23:52:03.085Z,8.59
2023-02-22T23:54:36.152Z,8.64
2023-02-22T23:57:04.431Z,8.65
2023-02-22T23:59:31.929Z,8.62
